createdAt,value
2023-03-16T00:01:17.949Z,7.90
2023-03-16T00:03:43.774Z,7.80
2023-03-16T00:06:08.488Z,7.80
2023-03-16T00:08:32.904Z,7.90
2023-03-16T00:10:58.691Z,7.80
2023-03-16T00:13:24.924Z,7.80
2023-03-16T00:15:52.298Z,7.90
2023-03-16T00:18:16.667Z,8.00
2023-03-16T00:20:42.544Z,7.90
2023-03-16T00:23:06.962Z,7.90
2023-03-16T00:25:33.614Z,8.00
2023-03-16T00:27:57.934Z,8.00
2023-03-16T00:30:22.947Z,7.90
2023-03-16T00:32:47.347Z,7.90
2023-03-16T00:35:14.934Z,7.80
2023-03-16T00:37:43.788Z,7.90
2023-03-16T00:40:11.563Z,7.90
2023-03-16T00:42:36.539Z,7.90
2023-03-16T00:45:01.978Z,7.80
2023-03-16T00:47:29.698Z,7.80
2023-03-16T00:49:54.165Z,7.80
2023-03-16T00:52:18.481Z,7.90
2023-03-16T00:54:45.507Z,7.80
2023-03-16T00:57:12.058Z,7.80
2023-03-16T00:59:37.967Z,7.80
2023-03-16T01:02:02.671Z,7.70
2023-03-16T01:04:26.992Z,7.80
2023-03-16T01:06:52.906Z,7.90
2023-03-16T01:09:18.148Z,8.00
2023-03-16T01:11:44.515Z,8.00
2023-03-16T01:14:08.968Z,8.00
2023-03-16T01:16:34.593Z,7.80
2023-03-16T01:18:59.125Z,7.80
2023-03-16T01:21:23.796Z,7.80
2023-03-16T01:23:49.029Z,7.80
2023-03-16T01:26:15.274Z,7.80
2023-03-16T01:28:41.055Z,7.80
2023-03-16T01:31:08.064Z,7.80
2023-03-16T01:33:32.746Z,7.80
2023-03-16T01:35:59.361Z,7.80
2023-03-16T01:38:28.158Z,7.80
2023-03-16T01:40:54.145Z,7.70
2023-03-16T01:43:20.322Z,7.80
2023-03-16T01:46:21.810Z,7.90
2023-03-16T01:49:05.658Z,7.90
2023-03-16T01:51:35.167Z,7.80
2023-03-16T01:54:04.432Z,7.80
2023-03-16T01:56:34.684Z,7.80
2023-03-16T01:59:03.420Z,7.90
2023-03-16T02:01:29.329Z,7.80
2023-03-16T02:04:06.676Z,7.70
2023-03-16T02:06:32.373Z,7.70
2023-03-16T02:08:58.336Z,7.70
2023-03-16T02:11:23.397Z,7.70
2023-03-16T02:13:59.701Z,7.70
2023-03-16T02:16:24.245Z,7.70
2023-03-16T02:18:49.989Z,7.60
2023-03-16T02:21:20.734Z,7.60
2023-03-16T02:23:45.444Z,7.60
2023-03-16T02:26:24.333Z,7.60
2023-03-16T02:28:59.616Z,7.60
2023-03-16T02:31:27.692Z,7.50
2023-03-16T02:33:55.300Z,7.50
2023-03-16T02:36:20.958Z,7.50
2023-03-16T02:38:46.529Z,7.40
2023-03-16T02:41:15.782Z,7.40
2023-03-16T02:43:43.575Z,7.40
2023-03-16T02:46:16.608Z,7.40
2023-03-16T02:48:46.866Z,7.50
2023-03-16T02:51:11.569Z,7.40
2023-03-16T02:53:36.349Z,7.40
2023-03-16T02:56:02.859Z,7.30
2023-03-16T02:58:29.659Z,7.30
2023-03-16T03:00:54.117Z,7.20
2023-03-16T03:03:19.008Z,7.30
2023-03-16T03:05:44.831Z,7.30
2023-03-16T03:08:09.426Z,7.30
2023-03-16T03:10:34.265Z,7.20
2023-03-16T03:12:59.025Z,7.20
2023-03-16T03:15:23.508Z,7.20
2023-03-16T03:17:57.546Z,7.20
2023-03-16T03:20:22.589Z,7.10
2023-03-16T03:22:50.021Z,7.10
2023-03-16T03:25:16.404Z,7.00
2023-03-16T03:27:41.311Z,7.10
2023-03-16T03:30:08.921Z,7.10
2023-03-16T03:32:33.270Z,7.20
2023-03-16T03:34:57.989Z,7.10
2023-03-16T03:37:24.850Z,7.10
2023-03-16T03:39:51.007Z,7.10
2023-03-16T03:42:15.672Z,6.90
2023-03-16T03:44:40.363Z,7.00
2023-03-16T03:47:05.860Z,7.00
2023-03-16T03:49:30.930Z,6.90
2023-03-16T03:51:56.758Z,6.90
2023-03-16T03:54:23.615Z,6.90
2023-03-16T03:56:53.408Z,6.90
2023-03-16T03:59:19.063Z,6.90
2023-03-16T04:02:02.304Z,6.90
2023-03-16T04:04:36.876Z,7.00
2023-03-16T04:07:01.393Z,6.90
2023-03-16T04:09:25.873Z,6.80
2023-03-16T04:11:50.970Z,6.80
2023-03-16T04:14:16.829Z,6.70
2023-03-16T04:16:44.360Z,6.70
2023-03-16T04:19:11.390Z,6.70
2023-03-16T04:21:36.226Z,6.60
2023-03-16T04:24:01.574Z,6.60
2023-03-16T04:26:31.842Z,6.70
2023-03-16T04:28:56.251Z,6.60
2023-03-16T04:31:22.694Z,6.60
2023-03-16T04:33:47.372Z,6.60
2023-03-16T04:36:12.112Z,6.70
2023-03-16T04:38:37.736Z,6.70
2023-03-16T04:41:03.729Z,6.70
2023-03-16T04:43:34.473Z,6.60
2023-03-16T04:46:06.917Z,6.60
2023-03-16T04:48:33.885Z,6.50
2023-03-16T04:50:59.719Z,6.60
2023-03-16T04:53:26.826Z,6.60
2023-03-16T04:55:56.984Z,6.60
2023-03-16T04:58:22.816Z,6.60
2023-03-16T05:00:48.649Z,6.60
2023-03-16T05:03:20.613Z,6.60
2023-03-16T05:05:48.624Z,6.60
2023-03-16T05:08:13.778Z,6.50
2023-03-16T05:10:41.284Z,6.50
2023-03-16T05:13:05.757Z,6.50
2023-03-16T05:15:31.067Z,6.50
2023-03-16T05:18:14.979Z,6.50
2023-03-16T05:20:39.632Z,6.60
2023-03-16T05:23:08.173Z,6.60
2023-03-16T05:25:40.506Z,6.60
2023-03-16T05:28:07.747Z,6.60
2023-03-16T05:30:59.966Z,6.70
2023-03-16T05:33:25.851Z,6.60
2023-03-16T05:35:58.200Z,6.50
2023-03-16T05:38:25.031Z,6.40
2023-03-16T05:40:53.118Z,6.30
2023-03-16T05:43:41.139Z,6.30
2023-03-16T05:46:06.368Z,6.30
2023-03-16T05:48:31.957Z,6.30
2023-03-16T05:50:57.684Z,6.30
2023-03-16T05:53:28.866Z,6.30
2023-03-16T05:55:59.204Z,6.30
2023-03-16T05:58:23.882Z,6.30
2023-03-16T06:00:50.490Z,6.30
2023-03-16T06:03:26.310Z,6.30
2023-03-16T06:05:52.040Z,6.30
2023-03-16T06:08:24.212Z,6.20
2023-03-16T06:10:55.548Z,6.20
2023-03-16T06:13:20.166Z,6.20
2023-03-16T06:15:45.346Z,6.20
2023-03-16T06:18:11.204Z,6.20
2023-03-16T06:20:35.743Z,6.20
2023-03-16T06:23:00.973Z,6.30
2023-03-16T06:25:25.556Z,6.20
2023-03-16T06:27:52.309Z,6.30
2023-03-16T06:30:18.147Z,6.30
2023-03-16T06:32:43.324Z,6.20
2023-03-16T06:35:08.037Z,6.30
2023-03-16T06:37:35.717Z,6.30
2023-03-16T06:40:11.841Z,6.30
2023-03-16T06:42:38.388Z,6.20
2023-03-16T06:45:07.428Z,6.20
2023-03-16T06:47:32.316Z,6.20
2023-03-16T06:49:56.668Z,6.20
2023-03-16T06:52:23.603Z,6.30
2023-03-16T06:54:48.173Z,6.20
2023-03-16T06:57:14.380Z,6.10
2023-03-16T06:59:38.774Z,6.10
2023-03-16T07:02:04.724Z,6.10
2023-03-16T07:04:29.237Z,6.20
2023-03-16T07:06:53.930Z,6.20
2023-03-16T07:09:18.706Z,6.20
2023-03-16T07:11:44.885Z,6.20
2023-03-16T07:14:09.514Z,6.20
2023-03-16T07:16:34.331Z,6.20
2023-03-16T07:19:02.960Z,6.30
2023-03-16T07:21:28.794Z,6.30
2023-03-16T07:23:53.891Z,6.20
2023-03-16T07:26:23.085Z,6.20
2023-03-16T07:28:55.711Z,6.20
2023-03-16T07:31:21.554Z,6.30
2023-03-16T07:33:46.196Z,6.30
2023-03-16T07:36:17.512Z,6.30
2023-03-16T07:38:48.433Z,6.20
2023-03-16T07:41:12.923Z,6.20
2023-03-16T07:43:38.604Z,6.20
2023-03-16T07:46:04.255Z,6.20
2023-03-16T07:48:29.215Z,6.20
2023-03-16T07:50:57.822Z,6.20
2023-03-16T07:53:24.074Z,6.10
2023-03-16T07:55:57.108Z,6.10
2023-03-16T07:58:21.749Z,6.10
2023-03-16T08:00:47.498Z,6.20
2023-03-16T08:03:12.098Z,6.10
2023-03-16T08:05:36.799Z,6.20
2023-03-16T08:08:09.804Z,6.20
2023-03-16T08:10:39.688Z,6.10
2023-03-16T08:13:09.522Z,6.20
2023-03-16T08:15:38.179Z,6.20
2023-03-16T08:18:09.000Z,6.20
2023-03-16T08:20:34.268Z,6.20
2023-03-16T08:22:59.227Z,6.20
2023-03-16T08:25:29.417Z,6.20
2023-03-16T08:28:04.585Z,6.20
2023-03-16T08:30:31.177Z,6.20
2023-03-16T08:33:10.466Z,6.20
2023-03-16T08:35:36.871Z,6.20
2023-03-16T08:38:01.504Z,6.30
2023-03-16T08:40:29.727Z,6.30
2023-03-16T08:42:55.956Z,6.30
2023-03-16T08:45:23.854Z,6.30
2023-03-16T08:47:48.383Z,6.30
2023-03-16T08:50:15.613Z,6.30
2023-03-16T08:52:40.818Z,6.50
2023-03-16T08:55:09.776Z,6.40
2023-03-16T08:57:34.777Z,6.40
2023-03-16T08:59:59.192Z,6.40
2023-03-16T09:02:25.718Z,6.50
2023-03-16T09:04:50.951Z,6.40
2023-03-16T09:07:15.574Z,6.50
2023-03-16T09:09:40.413Z,6.60
2023-03-16T09:12:06.030Z,6.50
2023-03-16T09:14:31.057Z,6.50
2023-03-16T09:16:56.638Z,6.50
2023-03-16T09:19:23.006Z,6.40
2023-03-16T09:21:47.558Z,6.40
2023-03-16T09:24:12.286Z,6.30
2023-03-16T09:26:37.313Z,6.50
2023-03-16T09:29:02.254Z,6.40
2023-03-16T09:31:26.827Z,6.40
2023-03-16T09:33:51.277Z,6.50
2023-03-16T09:36:17.762Z,6.40
2023-03-16T09:38:43.915Z,6.50
2023-03-16T09:41:10.754Z,6.50
2023-03-16T09:43:56.835Z,6.40
2023-03-16T09:46:29.323Z,6.40
2023-03-16T09:48:55.828Z,6.50
2023-03-16T09:51:29.625Z,6.50
2023-03-16T09:53:58.844Z,6.60
2023-03-16T09:56:31.354Z,6.60
2023-03-16T09:58:56.780Z,6.50
2023-03-16T10:01:34.773Z,6.50
2023-03-16T10:04:09.947Z,6.40
2023-03-16T10:06:45.480Z,6.30
2023-03-16T10:09:24.755Z,6.20
2023-03-16T10:11:55.125Z,6.30
2023-03-16T10:14:26.629Z,6.20
2023-03-16T10:16:56.935Z,6.30
2023-03-16T10:19:27.269Z,6.30
2023-03-16T10:21:55.924Z,6.30
2023-03-16T10:24:28.852Z,6.20
2023-03-16T10:27:00.480Z,6.10
2023-03-16T10:29:25.667Z,6.20
2023-03-16T10:31:52.175Z,6.30
2023-03-16T10:34:17.153Z,6.30
2023-03-16T10:36:45.295Z,6.40
2023-03-16T10:39:18.796Z,6.40
2023-03-16T10:41:45.988Z,6.30
2023-03-16T10:44:16.737Z,6.30
2023-03-16T10:46:42.980Z,6.40
2023-03-16T10:49:18.903Z,6.50
2023-03-16T10:51:45.006Z,6.50
2023-03-16T10:54:17.372Z,6.60
2023-03-16T10:56:42.433Z,6.50
2023-03-16T10:59:24.318Z,6.50
2023-03-16T11:01:51.186Z,6.60
2023-03-16T11:04:18.240Z,6.50
2023-03-16T11:06:50.265Z,6.50
2023-03-16T11:09:22.114Z,6.60
2023-03-16T11:11:49.736Z,6.70
2023-03-16T11:14:15.878Z,6.60
2023-03-16T11:16:45.509Z,6.60
2023-03-16T11:19:19.019Z,6.70
2023-03-16T11:21:51.730Z,6.70
2023-03-16T11:24:24.691Z,6.80
2023-03-16T11:26:54.247Z,6.70
2023-03-16T11:29:48.092Z,6.80
2023-03-16T11:32:37.988Z,6.80
2023-03-16T11:35:04.574Z,6.70
2023-03-16T11:37:44.353Z,6.70
2023-03-16T11:40:28.295Z,6.90
2023-03-16T11:43:04.013Z,7.00
2023-03-16T11:45:36.294Z,7.00
2023-03-16T11:48:27.702Z,7.00
2023-03-16T11:51:03.837Z,7.00
2023-03-16T11:53:51.681Z,7.10
2023-03-16T11:56:32.020Z,7.20
2023-03-16T11:59:31.886Z,7.10
2023-03-16T12:02:12.772Z,7.10
2023-03-16T12:04:46.626Z,7.20
2023-03-16T12:07:26.766Z,7.20
2023-03-16T12:10:06.043Z,7.20
2023-03-16T12:12:42.816Z,7.20
2023-03-16T12:15:21.415Z,7.20
2023-03-16T12:17:46.897Z,7.20
2023-03-16T12:20:18.638Z,7.20
2023-03-16T12:22:45.423Z,7.30
2023-03-16T12:25:19.930Z,7.40
2023-03-16T12:27:48.987Z,7.60
2023-03-16T12:30:30.247Z,7.60
2023-03-16T12:33:02.270Z,7.80
2023-03-16T12:35:37.896Z,7.90
2023-03-16T12:38:32.763Z,8.10
2023-03-16T12:41:09.671Z,8.00
2023-03-16T12:43:54.150Z,7.90
2023-03-16T12:46:27.865Z,7.90
2023-03-16T12:48:57.400Z,8.10
2023-03-16T12:51:21.807Z,8.20
2023-03-16T12:53:48.374Z,8.30
2023-03-16T12:56:31.574Z,8.40
2023-03-16T12:59:31.021Z,8.50
2023-03-16T13:02:00.979Z,8.70
2023-03-16T13:04:34.068Z,8.80
2023-03-16T13:07:05.171Z,8.70
2023-03-16T13:09:32.621Z,8.80
2023-03-16T13:11:57.111Z,8.80
2023-03-16T13:14:54.798Z,8.90
2023-03-16T13:17:29.086Z,8.80
2023-03-16T13:20:06.905Z,8.70
2023-03-16T13:22:58.859Z,8.60
2023-03-16T13:28:07.548Z,8.70
2023-03-16T13:30:36.606Z,8.80
2023-03-16T13:33:08.886Z,8.90
2023-03-16T13:35:34.054Z,8.80
2023-03-16T13:38:07.143Z,8.80
2023-03-16T13:40:31.565Z,8.90
2023-03-16T13:42:58.233Z,8.90
2023-03-16T13:45:44.342Z,9.00
2023-03-16T13:48:13.901Z,9.00
2023-03-16T13:50:42.614Z,9.00
2023-03-16T13:53:16.211Z,8.90
2023-03-16T13:55:41.782Z,9.00
2023-03-16T13:58:07.003Z,9.20
2023-03-16T14:00:35.132Z,9.20
2023-03-16T14:03:04.212Z,9.20
2023-03-16T14:05:33.480Z,9.20
2023-03-16T14:08:00.642Z,9.00
2023-03-16T14:10:27.499Z,9.10
2023-03-16T14:12:56.058Z,9.00
2023-03-16T14:15:21.960Z,9.00
2023-03-16T14:17:46.455Z,9.20
2023-03-16T14:20:20.330Z,9.30
2023-03-16T14:22:46.481Z,9.40
2023-03-16T14:25:22.193Z,9.50
2023-03-16T14:27:47.639Z,9.60
2023-03-16T14:30:19.450Z,9.70
2023-03-16T14:32:55.129Z,9.70
2023-03-16T14:35:23.243Z,9.80
2023-03-16T14:37:50.587Z,9.90
2023-03-16T14:40:27.494Z,10.00
2023-03-16T14:42:53.304Z,10.00
2023-03-16T14:45:18.702Z,10.00
2023-03-16T14:47:46.757Z,10.00
2023-03-16T14:50:16.840Z,10.00
2023-03-16T14:52:41.430Z,10.00
2023-03-16T14:55:15.007Z,10.00
2023-03-16T14:57:41.765Z,10.00
2023-03-16T15:00:10.265Z,10.00
2023-03-16T15:02:35.467Z,9.90
2023-03-16T15:05:01.452Z,9.90
2023-03-16T15:07:28.632Z,9.90
2023-03-16T15:09:55.230Z,9.90
2023-03-16T15:12:22.619Z,9.80
2023-03-16T15:15:16.732Z,9.80
2023-03-16T15:17:42.404Z,9.90
2023-03-16T15:20:07.876Z,9.90
2023-03-16T15:22:35.048Z,9.90
2023-03-16T15:25:00.427Z,9.90
2023-03-16T15:27:31.616Z,9.90
2023-03-16T15:29:56.720Z,9.90
2023-03-16T15:32:21.246Z,9.90
2023-03-16T15:34:46.817Z,9.90
2023-03-16T15:37:15.063Z,9.90
2023-03-16T15:39:40.239Z,9.90
2023-03-16T15:42:07.377Z,9.80
2023-03-16T15:44:33.196Z,9.90
2023-03-16T15:46:57.673Z,9.90
2023-03-16T15:49:22.476Z,9.80
2023-03-16T15:51:46.904Z,9.70
2023-03-16T15:54:13.358Z,9.60
2023-03-16T15:56:53.417Z,9.50
2023-03-16T15:59:19.043Z,9.40
2023-03-16T16:01:47.653Z,9.30
2023-03-16T16:04:17.424Z,9.40
2023-03-16T16:06:42.018Z,9.40
2023-03-16T16:09:06.518Z,9.40
2023-03-16T16:11:31.037Z,9.50
2023-03-16T16:13:56.797Z,9.40
2023-03-16T16:16:21.801Z,9.20
2023-03-16T16:18:48.528Z,9.10
2023-03-16T16:21:17.888Z,9.00
2023-03-16T16:23:42.955Z,9.00
2023-03-16T16:26:17.940Z,9.00
2023-03-16T16:28:42.608Z,9.00
2023-03-16T16:31:14.881Z,8.90
2023-03-16T16:33:39.477Z,8.80
2023-03-16T16:36:08.291Z,8.90
2023-03-16T16:38:33.647Z,8.80
2023-03-16T16:41:00.700Z,8.70
2023-03-16T16:43:32.940Z,8.70
2023-03-16T16:45:58.018Z,8.70
2023-03-16T16:48:32.393Z,8.60
2023-03-16T16:50:57.335Z,8.80
2023-03-16T16:53:23.618Z,9.10
2023-03-16T16:55:48.599Z,9.10
2023-03-16T16:58:23.851Z,9.20
2023-03-16T17:00:53.170Z,9.10
2023-03-16T17:03:25.713Z,9.10
2023-03-16T17:05:50.261Z,9.00
2023-03-16T17:08:14.673Z,8.90
2023-03-16T17:10:40.627Z,8.80
2023-03-16T17:13:05.775Z,8.70
2023-03-16T17:15:32.885Z,8.70
2023-03-16T17:18:05.057Z,8.80
2023-03-16T17:20:30.144Z,8.80
2023-03-16T17:22:55.856Z,8.60
2023-03-16T17:25:20.489Z,8.60
2023-03-16T17:27:48.533Z,8.60
2023-03-16T17:30:25.488Z,8.60
2023-03-16T17:32:51.137Z,8.60
2023-03-16T17:35:16.424Z,8.60
2023-03-16T17:37:41.427Z,8.60
2023-03-16T17:40:06.851Z,8.60
2023-03-16T17:42:31.648Z,8.70
2023-03-16T17:44:58.069Z,8.70
2023-03-16T17:47:24.440Z,8.70
2023-03-16T17:49:54.070Z,8.60
2023-03-16T17:52:20.924Z,8.50
2023-03-16T17:54:46.016Z,8.60
2023-03-16T17:57:17.793Z,8.60
2023-03-16T17:59:54.884Z,8.60
2023-03-16T18:02:41.085Z,8.70
2023-03-16T18:05:08.890Z,8.70
2023-03-16T18:07:33.393Z,8.60
2023-03-16T18:09:57.931Z,8.60
2023-03-16T18:12:22.674Z,8.50
2023-03-16T18:14:47.523Z,8.50
2023-03-16T18:17:21.530Z,8.60
2023-03-16T18:19:47.439Z,8.60
2023-03-16T18:22:19.365Z,8.30
2023-03-16T18:24:45.059Z,7.90
2023-03-16T18:27:12.229Z,7.60
2023-03-16T18:29:36.816Z,7.30
2023-03-16T18:32:01.479Z,6.90
2023-03-16T18:34:31.778Z,6.90
2023-03-16T18:36:59.777Z,6.90
2023-03-16T18:39:24.878Z,6.90
2023-03-16T18:41:49.888Z,6.90
2023-03-16T18:44:18.681Z,7.00
2023-03-16T18:46:44.745Z,7.00
2023-03-16T18:49:16.289Z,7.10
2023-03-16T18:51:41.875Z,7.10
2023-03-16T18:54:21.240Z,7.20
2023-03-16T18:56:45.676Z,7.30
2023-03-16T18:59:10.873Z,7.40
2023-03-16T19:01:37.977Z,7.40
2023-03-16T19:04:03.296Z,7.40
2023-03-16T19:06:31.542Z,7.50
2023-03-16T19:08:58.757Z,7.60
2023-03-16T19:11:24.648Z,7.70
2023-03-16T19:13:49.503Z,7.70
2023-03-16T19:16:18.719Z,7.70
2023-03-16T19:18:44.898Z,7.80
2023-03-16T19:21:14.983Z,7.90
2023-03-16T19:23:40.648Z,7.90
2023-03-16T19:26:05.337Z,8.00
2023-03-16T19:28:34.345Z,7.80
2023-03-16T19:30:58.779Z,7.90
2023-03-16T19:33:25.960Z,8.00
2023-03-16T19:35:52.445Z,8.00
2023-03-16T19:38:20.933Z,8.10
2023-03-16T19:40:46.202Z,8.10
2023-03-16T19:43:18.634Z,8.20
2023-03-16T19:45:44.856Z,8.20
2023-03-16T19:48:14.305Z,8.30
2023-03-16T19:50:38.819Z,8.30
2023-03-16T19:53:03.490Z,8.30
2023-03-16T19:55:32.789Z,8.40
2023-03-16T19:58:01.582Z,8.30
2023-03-16T20:00:27.168Z,8.40
2023-03-16T20:02:55.285Z,8.40
2023-03-16T20:05:22.528Z,8.40
2023-03-16T20:07:47.266Z,8.40
2023-03-16T20:10:19.513Z,8.40
2023-03-16T20:12:44.132Z,8.30
2023-03-16T20:15:16.872Z,8.30
2023-03-16T20:17:43.297Z,8.20
2023-03-16T20:20:20.794Z,8.10
2023-03-16T20:22:45.242Z,8.00
2023-03-16T20:25:10.356Z,8.10
2023-03-16T20:27:35.557Z,8.10
2023-03-16T20:30:00.182Z,8.20
2023-03-16T20:32:27.276Z,8.20
2023-03-16T20:34:53.686Z,8.30
2023-03-16T20:37:24.882Z,8.30
2023-03-16T20:39:49.395Z,8.20
2023-03-16T20:42:17.910Z,8.20
2023-03-16T20:44:42.502Z,8.20
2023-03-16T20:47:07.535Z,8.20
2023-03-16T20:49:36.713Z,8.30
2023-03-16T20:52:01.453Z,8.30
2023-03-16T20:54:27.271Z,8.40
2023-03-16T20:56:51.739Z,8.40
2023-03-16T20:59:20.495Z,8.40
2023-03-16T21:01:45.781Z,8.40
2023-03-16T21:04:21.136Z,8.40
2023-03-16T21:06:48.404Z,8.30
2023-03-16T21:09:12.754Z,8.30
2023-03-16T21:11:39.904Z,8.30
2023-03-16T21:14:04.997Z,8.30
2023-03-16T21:16:30.332Z,8.40
2023-03-16T21:18:54.739Z,8.40
2023-03-16T21:21:20.692Z,8.40
2023-03-16T21:23:45.705Z,8.40
2023-03-16T21:26:17.191Z,8.40
2023-03-16T21:28:44.570Z,8.40
2023-03-16T21:31:08.987Z,8.40
2023-03-16T21:33:35.311Z,8.50
2023-03-16T21:36:00.967Z,8.40
2023-03-16T21:38:26.153Z,8.40
2023-03-16T21:40:50.709Z,8.50
2023-03-16T21:43:15.894Z,8.40
2023-03-16T21:45:43.375Z,8.30
2023-03-16T21:48:08.854Z,8.30
2023-03-16T21:50:35.538Z,8.20
2023-03-16T21:53:00.129Z,8.20
2023-03-16T21:55:25.955Z,8.30
2023-03-16T21:57:51.629Z,8.30
2023-03-16T22:00:22.179Z,8.30
2023-03-16T22:02:49.507Z,8.20
2023-03-16T22:05:36.060Z,8.20
2023-03-16T22:08:01.890Z,8.30
2023-03-16T22:10:28.610Z,8.30
2023-03-16T22:12:53.158Z,8.30
2023-03-16T22:15:18.462Z,8.20
2023-03-16T22:17:43.056Z,8.00
2023-03-16T22:20:21.793Z,7.90
2023-03-16T22:22:46.593Z,7.90
2023-03-16T22:25:15.389Z,7.80
2023-03-16T22:27:40.205Z,7.70
2023-03-16T22:30:05.077Z,7.60
2023-03-16T22:32:30.779Z,7.50
2023-03-16T22:34:57.839Z,7.30
2023-03-16T22:37:26.100Z,7.30
2023-03-16T22:39:50.921Z,7.40
2023-03-16T22:42:28.130Z,7.50
2023-03-16T22:44:52.743Z,7.70
2023-03-16T22:47:22.906Z,7.70
2023-03-16T22:49:47.005Z,7.70
2023-03-16T22:52:12.611Z,7.70
2023-03-16T22:54:38.578Z,7.80
2023-03-16T22:57:03.084Z,7.90
2023-03-16T22:59:28.992Z,7.90
2023-03-16T23:01:53.577Z,7.90
2023-03-16T23:04:19.982Z,7.80
2023-03-16T23:06:44.754Z,7.90
2023-03-16T23:09:11.230Z,7.90
2023-03-16T23:11:39.815Z,7.90
2023-03-16T23:14:05.250Z,7.90
2023-03-16T23:16:32.228Z,7.90
2023-03-16T23:18:57.242Z,7.90
2023-03-16T23:21:24.614Z,7.80
2023-03-16T23:24:02.576Z,7.80
2023-03-16T23:26:29.235Z,7.70
2023-03-16T23:28:57.094Z,7.60
2023-03-16T23:31:22.953Z,7.60
2023-03-16T23:33:47.726Z,7.70
2023-03-16T23:36:16.040Z,7.60
2023-03-16T23:38:40.512Z,7.50
2023-03-16T23:41:07.962Z,7.50
2023-03-16T23:43:33.878Z,7.50
2023-03-16T23:45:59.940Z,7.60
2023-03-16T23:48:26.899Z,7.60
2023-03-16T23:50:54.501Z,7.60
2023-03-16T23:53:20.498Z,7.40
2023-03-16T23:55:45.781Z,7.20
2023-03-16T23:58:11.153Z,7.10
